Terminal Aerodrome Forecast
Issued by NWS Sterling, VA

Home | Current Version | Previous Version | Text Only | Print | Product List | Glossary On
Versions: 1 2 3 4 5 6 7 8 9 10 11 12 13 14 15 16 17 18 19 20 21 22 23 24 25 26
000
FTUS41 KLWX 071449 AAB
TAFBWI
TAF AMD
KBWI 071449Z 0715/0818 24006KT P6SM SCT050
     FM072100 20008KT P6SM SCT060
     FM080700 VRB04KT P6SM OVC040=

USA.gov is the U.S. government's official web portal to all federal, state and local government web resources and services.